createdAt,value
2023-03-21T00:01:53.021Z,6.43
2023-03-21T00:04:20.960Z,6.78
2023-03-21T00:06:48.936Z,6.65
2023-03-21T00:09:16.657Z,6.57
2023-03-21T00:11:44.650Z,6.80
2023-03-21T00:14:15.074Z,6.10
2023-03-21T00:16:45.778Z,6.13
2023-03-21T00:19:15.861Z,6.07
2023-03-21T00:22:03.329Z,6.80
2023-03-21T00:24:31.793Z,6.53
2023-03-21T00:27:12.519Z,7.57
2023-03-21T00:29:49.264Z,7.28
2023-03-21T00:32:17.050Z,6.95
2023-03-21T00:34:58.816Z,6.88
2023-03-21T00:37:30.134Z,6.63
2023-03-21T00:39:57.820Z,7.55
2023-03-21T00:42:26.353Z,6.47
2023-03-21T00:44:54.054Z,7.30
2023-03-21T00:47:23.596Z,7.22
2023-03-21T00:52:34.150Z,7.50
2023-03-21T00:55:09.057Z,8.25
2023-03-21T00:57:39.679Z,7.95
2023-03-21T01:00:10.097Z,8.20
2023-03-21T01:02:37.884Z,8.02
2023-03-21T01:05:07.968Z,7.97
2023-03-21T01:07:35.663Z,8.38
2023-03-21T01:10:03.396Z,7.72
2023-03-21T01:12:31.115Z,8.13
2023-03-21T01:14:58.876Z,8.15
2023-03-21T01:17:26.712Z,8.40
2023-03-21T01:19:54.452Z,7.43
2023-03-21T01:22:24.386Z,7.90
2023-03-21T01:24:58.511Z,7.80
2023-03-21T01:27:28.402Z,8.82
2023-03-21T01:29:56.229Z,8.52
2023-03-21T01:32:23.887Z,8.70
2023-03-21T01:34:51.582Z,8.68
2023-03-21T01:37:19.874Z,8.30
2023-03-21T01:39:49.006Z,8.75
2023-03-21T01:42:17.029Z,8.00
2023-03-21T01:44:55.366Z,8.57
2023-03-21T01:47:23.228Z,7.65
2023-03-21T01:49:53.670Z,11.85
2023-03-21T01:52:40.293Z,12.38
2023-03-21T01:55:13.173Z,12.82
2023-03-21T01:57:58.519Z,13.40
2023-03-21T02:00:33.756Z,14.38
2023-03-21T02:03:13.753Z,13.40
2023-03-21T02:05:53.338Z,14.57
2023-03-21T02:08:25.844Z,14.50
2023-03-21T02:11:02.432Z,15.18
2023-03-21T02:13:30.091Z,15.70
2023-03-21T02:16:02.619Z,15.25
2023-03-21T02:18:38.607Z,15.95
2023-03-21T02:21:44.736Z,15.73
2023-03-21T02:25:08.174Z,15.57
2023-03-21T02:27:43.536Z,16.73
2023-03-21T02:30:52.104Z,17.67
2023-03-21T02:33:38.843Z,17.45
2023-03-21T02:36:25.616Z,20.70
2023-03-21T02:39:03.837Z,19.13
2023-03-21T02:41:41.515Z,22.02
2023-03-21T02:44:18.044Z,21.02
2023-03-21T02:47:02.986Z,22.73
2023-03-21T02:49:38.288Z,21.33
2023-03-21T02:52:17.075Z,22.83
2023-03-21T02:54:53.125Z,23.00
2023-03-21T02:57:24.048Z,23.55
2023-03-21T03:00:02.380Z,21.85
2023-03-21T03:02:33.022Z,22.75
2023-03-21T03:05:02.858Z,22.25
2023-03-21T03:07:46.898Z,23.50
2023-03-21T03:10:52.800Z,24.83
2023-03-21T03:13:36.251Z,24.40
2023-03-21T03:16:15.549Z,24.42
2023-03-21T03:18:51.217Z,24.75
2023-03-21T03:21:25.362Z,25.20
2023-03-21T03:23:55.143Z,24.10
2023-03-21T03:26:30.330Z,24.67
2023-03-21T03:29:02.889Z,25.02
2023-03-21T03:31:36.322Z,26.40
2023-03-21T03:34:08.330Z,25.27
2023-03-21T03:36:40.591Z,26.42
2023-03-21T03:39:11.564Z,26.38
2023-03-21T03:42:06.112Z,26.05
2023-03-21T03:44:34.062Z,26.30
2023-03-21T03:47:06.328Z,25.80
2023-03-21T03:49:39.361Z,27.00
2023-03-21T03:52:13.465Z,25.85
2023-03-21T03:54:44.905Z,25.17
2023-03-21T03:57:15.006Z,25.00
2023-03-21T03:59:45.226Z,26.23
2023-03-21T04:02:13.417Z,25.98
2023-03-21T04:04:41.878Z,25.73
2023-03-21T04:07:09.885Z,26.77
2023-03-21T04:09:44.689Z,26.42
2023-03-21T04:12:14.826Z,27.88
2023-03-21T04:14:46.110Z,26.98
2023-03-21T04:17:15.000Z,25.25
2023-03-21T04:19:42.919Z,28.48
2023-03-21T04:22:10.796Z,27.65
2023-03-21T04:24:38.645Z,27.77
2023-03-21T04:27:07.076Z,28.02
2023-03-21T04:29:36.231Z,27.65
2023-03-21T04:32:04.001Z,29.50
2023-03-21T04:34:31.808Z,29.10
2023-03-21T04:36:59.620Z,28.85
2023-03-21T04:39:27.438Z,29.08
2023-03-21T04:41:55.240Z,30.02
2023-03-21T04:44:22.988Z,29.02
2023-03-21T04:46:52.121Z,29.38
2023-03-21T04:49:20.012Z,28.98
2023-03-21T04:51:47.937Z,30.52
2023-03-21T04:56:42.825Z,28.55
2023-03-21T04:59:13.787Z,29.23
2023-03-21T05:01:43.711Z,30.33
2023-03-21T05:04:14.020Z,30.50
2023-03-21T05:06:42.464Z,30.48
2023-03-21T05:09:10.574Z,29.02
2023-03-21T05:11:41.011Z,30.08
2023-03-21T05:14:11.179Z,29.10
2023-03-21T05:16:48.364Z,30.83
2023-03-21T05:19:19.272Z,28.33
2023-03-21T05:21:47.372Z,28.98
2023-03-21T05:24:17.959Z,28.27
2023-03-21T05:29:19.138Z,28.15
2023-03-21T05:31:47.389Z,27.40
2023-03-21T05:34:16.883Z,28.05
2023-03-21T05:36:44.648Z,29.17
2023-03-21T05:39:12.428Z,28.52
2023-03-21T05:41:40.290Z,28.73
2023-03-21T05:44:08.071Z,28.13
2023-03-21T05:46:35.893Z,30.40
2023-03-21T05:49:03.683Z,30.83
2023-03-21T05:51:32.883Z,30.70
2023-03-21T05:54:00.672Z,31.73
2023-03-21T05:56:28.515Z,30.05
2023-03-21T05:58:56.324Z,30.20
2023-03-21T06:01:24.199Z,30.85
2023-03-21T06:03:51.983Z,30.10
2023-03-21T06:06:19.775Z,29.08
2023-03-21T06:08:49.281Z,28.17
2023-03-21T06:11:24.199Z,28.63
2023-03-21T06:13:52.061Z,29.60
2023-03-21T06:16:19.834Z,27.42
2023-03-21T06:18:47.687Z,29.13
2023-03-21T06:21:15.473Z,29.75
2023-03-21T06:23:43.327Z,27.95
2023-03-21T06:26:12.455Z,28.40
2023-03-21T06:28:40.372Z,28.48
2023-03-21T06:31:08.570Z,27.80
2023-03-21T06:33:36.440Z,29.70
2023-03-21T06:36:04.358Z,29.77
2023-03-21T06:38:32.380Z,29.02
2023-03-21T06:41:00.317Z,27.98
2023-03-21T06:43:29.441Z,28.40
2023-03-21T06:45:57.200Z,27.48
2023-03-21T06:48:25.855Z,27.85
2023-03-21T06:50:54.950Z,28.30
2023-03-21T06:53:27.171Z,28.40
2023-03-21T06:55:55.881Z,28.48
2023-03-21T06:58:24.394Z,28.13
2023-03-21T07:00:53.707Z,28.58
2023-03-21T07:03:21.516Z,28.35
2023-03-21T07:05:49.354Z,28.88
2023-03-21T07:08:18.609Z,30.00
2023-03-21T07:10:46.930Z,29.63
2023-03-21T07:13:15.432Z,30.35
2023-03-21T07:15:43.315Z,29.15
2023-03-21T07:18:12.595Z,30.17
2023-03-21T07:20:40.468Z,29.55
2023-03-21T07:23:08.314Z,29.98
2023-03-21T07:25:36.551Z,31.73
2023-03-21T07:28:09.006Z,31.08
2023-03-21T07:30:37.759Z,31.73
2023-03-21T07:33:05.900Z,30.63
2023-03-21T07:35:36.592Z,30.13
2023-03-21T07:38:04.852Z,30.85
2023-03-21T07:40:32.852Z,31.83
2023-03-21T07:45:28.781Z,30.88
2023-03-21T07:47:56.604Z,30.77
2023-03-21T07:50:24.439Z,31.35
2023-03-21T07:52:53.929Z,31.10
2023-03-21T07:55:21.668Z,31.50
2023-03-21T07:57:51.548Z,29.90
2023-03-21T08:00:36.279Z,32.30
2023-03-21T08:03:04.584Z,32.30
2023-03-21T08:05:37.220Z,31.63
2023-03-21T08:08:07.414Z,31.40
2023-03-21T08:10:36.009Z,30.95
2023-03-21T08:13:04.462Z,31.90
2023-03-21T08:15:32.436Z,31.48
2023-03-21T08:18:01.006Z,32.33
2023-03-21T08:20:28.939Z,31.65
2023-03-21T08:22:56.649Z,32.13
2023-03-21T08:25:26.312Z,31.05
2023-03-21T08:27:54.462Z,30.50
2023-03-21T08:30:23.981Z,31.88
2023-03-21T08:32:52.078Z,31.60
2023-03-21T08:35:21.042Z,38.58
2023-03-21T08:37:48.874Z,32.00
2023-03-21T08:40:20.731Z,32.38
2023-03-21T08:42:49.881Z,32.72
2023-03-21T08:45:19.088Z,31.60
2023-03-21T08:47:47.254Z,30.38
2023-03-21T08:50:20.659Z,30.77
2023-03-21T08:52:49.419Z,30.33
2023-03-21T08:55:18.915Z,31.08
2023-03-21T08:57:47.441Z,31.50
2023-03-21T09:00:20.885Z,31.00
2023-03-21T09:02:51.705Z,30.75
2023-03-21T09:05:19.906Z,30.15
2023-03-21T09:07:49.574Z,30.38
2023-03-21T09:10:21.438Z,30.90
2023-03-21T09:12:51.268Z,30.77
2023-03-21T09:15:24.793Z,30.98
2023-03-21T09:17:54.224Z,28.85
2023-03-21T09:20:31.104Z,29.30
2023-03-21T09:23:01.840Z,27.33
2023-03-21T09:25:31.294Z,27.85
2023-03-21T09:27:59.611Z,31.38
2023-03-21T09:30:29.649Z,28.92
2023-03-21T09:32:57.858Z,28.25
2023-03-21T09:35:26.988Z,27.70
2023-03-21T09:37:57.501Z,24.83
2023-03-21T09:40:45.313Z,25.95
2023-03-21T09:43:27.437Z,25.05
2023-03-21T09:46:03.992Z,27.58
2023-03-21T09:48:46.996Z,26.42
2023-03-21T09:51:23.712Z,27.85
2023-03-21T09:53:52.554Z,27.98
2023-03-21T09:56:21.277Z,43.33
2023-03-21T09:58:54.633Z,28.73
2023-03-21T10:01:28.401Z,28.77
2023-03-21T10:03:57.595Z,28.98
2023-03-21T10:06:30.688Z,30.60
2023-03-21T10:09:01.420Z,31.50
2023-03-21T10:14:05.324Z,30.10
2023-03-21T10:16:37.535Z,31.30
2023-03-21T10:19:10.027Z,30.75
2023-03-21T10:21:59.872Z,29.63
2023-03-21T10:24:30.522Z,28.25
2023-03-21T10:26:58.674Z,36.67
2023-03-21T10:29:30.024Z,27.48
2023-03-21T10:31:59.160Z,27.33
2023-03-21T10:34:36.513Z,26.50
2023-03-21T10:37:05.769Z,25.23
2023-03-21T10:39:37.211Z,25.05
2023-03-21T10:42:05.140Z,25.73
2023-03-21T10:44:34.618Z,24.38
2023-03-21T10:47:07.905Z,24.42
2023-03-21T10:49:56.484Z,23.60
2023-03-21T10:52:29.736Z,23.00
2023-03-21T10:55:09.432Z,24.55
2023-03-21T10:57:38.256Z,24.27
2023-03-21T11:00:14.947Z,23.27
2023-03-21T11:02:48.797Z,23.58
2023-03-21T11:05:22.527Z,79.75
2023-03-21T11:07:59.603Z,22.95
2023-03-21T11:10:32.543Z,22.95
2023-03-21T11:13:05.073Z,21.83
2023-03-21T11:15:39.235Z,21.58
2023-03-21T11:18:18.946Z,21.80
2023-03-21T11:20:52.078Z,20.85
2023-03-21T11:23:21.080Z,20.83
2023-03-21T11:25:51.048Z,21.00
2023-03-21T11:28:23.306Z,20.92
2023-03-21T11:30:54.161Z,20.90
2023-03-21T11:33:26.981Z,19.88
2023-03-21T11:36:03.078Z,20.55
2023-03-21T11:38:33.711Z,20.65
2023-03-21T11:43:33.092Z,20.50
2023-03-21T11:46:06.424Z,44.42
2023-03-21T11:48:40.836Z,22.60
2023-03-21T11:51:20.269Z,20.38
2023-03-21T11:53:57.342Z,20.40
2023-03-21T11:56:28.360Z,19.90
2023-03-21T11:59:17.633Z,19.33
2023-03-21T12:02:06.515Z,19.95
2023-03-21T12:04:42.206Z,18.50
2023-03-21T12:07:34.724Z,21.42
2023-03-21T12:10:18.025Z,22.02
2023-03-21T12:12:55.872Z,18.67
2023-03-21T12:15:29.328Z,17.60
2023-03-21T12:18:06.937Z,19.35
2023-03-21T12:20:42.030Z,23.98
2023-03-21T12:23:26.742Z,18.45
2023-03-21T12:26:04.989Z,18.48
2023-03-21T12:28:42.213Z,17.45
2023-03-21T12:31:22.012Z,18.55
2023-03-21T12:34:04.435Z,17.57
2023-03-21T12:36:43.576Z,18.65
2023-03-21T12:39:24.788Z,18.60
2023-03-21T12:42:05.832Z,34.50
2023-03-21T12:44:36.821Z,19.90
2023-03-21T12:47:08.891Z,19.88
2023-03-21T12:49:42.416Z,18.08
2023-03-21T12:52:15.521Z,19.02
2023-03-21T12:54:49.569Z,20.13
2023-03-21T12:57:19.456Z,19.63
2023-03-21T12:59:55.018Z,21.40
2023-03-21T13:02:27.761Z,20.05
2023-03-21T13:05:04.568Z,20.38
2023-03-21T13:07:37.028Z,20.00
2023-03-21T13:10:14.702Z,21.40
2023-03-21T13:12:48.694Z,20.63
2023-03-21T13:15:36.486Z,20.08
2023-03-21T13:18:16.754Z,21.08
2023-03-21T13:20:48.487Z,18.58
2023-03-21T13:23:19.508Z,20.50
2023-03-21T13:25:48.879Z,19.52
2023-03-21T13:28:23.048Z,20.40
2023-03-21T13:30:51.653Z,18.27
2023-03-21T13:33:25.814Z,19.58
2023-03-21T13:36:05.241Z,17.48
2023-03-21T13:38:36.443Z,16.95
2023-03-21T13:41:08.920Z,18.27
2023-03-21T13:43:43.484Z,17.02
2023-03-21T13:46:13.667Z,15.60
2023-03-21T13:49:00.419Z,15.80
2023-03-21T13:51:44.800Z,14.60
2023-03-21T13:54:24.226Z,13.80
2023-03-21T13:56:59.974Z,14.88
2023-03-21T13:59:41.340Z,15.50
2023-03-21T14:02:30.460Z,14.63
2023-03-21T14:05:08.861Z,13.80
2023-03-21T14:07:42.004Z,13.93
2023-03-21T14:10:20.306Z,14.63
2023-03-21T14:12:48.522Z,14.65
2023-03-21T14:15:20.436Z,14.23
2023-03-21T14:17:53.946Z,13.93
2023-03-21T14:20:23.581Z,14.60
2023-03-21T14:22:51.392Z,14.43
2023-03-21T14:25:24.347Z,13.60
2023-03-21T14:27:55.691Z,13.32
2023-03-21T14:30:27.068Z,13.15
2023-03-21T14:32:57.357Z,13.10
2023-03-21T14:35:26.486Z,12.27
2023-03-21T14:37:54.124Z,12.32
2023-03-21T14:40:27.046Z,12.50
2023-03-21T14:42:55.859Z,13.85
2023-03-21T14:45:25.584Z,13.20
2023-03-21T14:47:58.500Z,12.32
2023-03-21T14:50:35.767Z,12.77
2023-03-21T14:53:04.087Z,12.60
2023-03-21T14:55:33.186Z,11.75
2023-03-21T14:58:00.911Z,11.88
2023-03-21T15:00:31.570Z,11.00
2023-03-21T15:03:00.649Z,10.82
2023-03-21T15:05:32.469Z,11.43
2023-03-21T15:08:02.684Z,11.07
2023-03-21T15:10:33.278Z,10.68
2023-03-21T15:15:31.253Z,9.80
2023-03-21T15:18:07.852Z,9.68
2023-03-21T15:20:39.051Z,10.40
2023-03-21T15:23:10.641Z,10.02
2023-03-21T15:25:40.569Z,9.55
2023-03-21T15:28:08.744Z,9.55
2023-03-21T15:30:36.524Z,9.73
2023-03-21T15:33:09.039Z,9.02
2023-03-21T15:35:39.806Z,9.57
2023-03-21T15:38:07.951Z,9.38
2023-03-21T15:40:36.196Z,9.35
2023-03-21T15:43:16.385Z,9.60
2023-03-21T15:45:49.125Z,10.07
2023-03-21T15:48:17.897Z,8.57
2023-03-21T15:50:52.930Z,8.10
2023-03-21T15:53:21.251Z,8.85
2023-03-21T15:55:52.142Z,10.02
2023-03-21T15:58:24.163Z,9.90
2023-03-21T16:00:55.456Z,9.80
2023-03-21T16:03:27.069Z,9.77
2023-03-21T16:06:16.859Z,8.95
2023-03-21T16:08:48.237Z,7.90
2023-03-21T16:11:20.673Z,8.40
2023-03-21T16:13:50.326Z,10.52
2023-03-21T16:16:21.303Z,9.63
2023-03-21T16:18:49.570Z,8.82
2023-03-21T16:21:18.734Z,9.77
2023-03-21T16:23:46.977Z,10.18
2023-03-21T16:26:16.583Z,10.68
2023-03-21T16:28:44.196Z,12.10
2023-03-21T16:31:16.162Z,10.15
2023-03-21T16:33:44.818Z,10.70
2023-03-21T16:36:15.470Z,9.35
2023-03-21T16:38:43.151Z,11.73
2023-03-21T16:41:12.215Z,11.32
2023-03-21T16:43:43.137Z,11.90
2023-03-21T16:46:15.239Z,11.02
2023-03-21T16:48:43.680Z,11.45
2023-03-21T16:51:14.317Z,12.30
2023-03-21T16:56:16.005Z,14.43
2023-03-21T16:58:44.014Z,15.10
2023-03-21T17:01:16.316Z,15.52
2023-03-21T17:03:44.169Z,15.43
2023-03-21T17:06:14.926Z,15.52
2023-03-21T17:08:42.766Z,16.33
2023-03-21T17:11:12.193Z,15.10
2023-03-21T17:13:40.390Z,17.05
2023-03-21T17:16:08.611Z,17.50
2023-03-21T17:18:37.640Z,16.77
2023-03-21T17:21:14.672Z,17.40
2023-03-21T17:23:42.688Z,16.17
2023-03-21T17:26:10.812Z,17.58
2023-03-21T17:28:38.582Z,16.77
2023-03-21T17:31:13.174Z,18.38
2023-03-21T17:33:42.642Z,16.17
2023-03-21T17:36:14.954Z,16.60
2023-03-21T17:38:42.858Z,17.25
2023-03-21T17:41:12.863Z,16.10
2023-03-21T17:43:41.079Z,15.15
2023-03-21T17:46:11.692Z,15.00
2023-03-21T17:48:39.419Z,16.88
2023-03-21T17:51:12.701Z,14.70
2023-03-21T17:53:40.362Z,16.48
2023-03-21T17:56:13.650Z,15.77
2023-03-21T17:58:41.278Z,15.43
2023-03-21T18:01:09.072Z,14.43
2023-03-21T18:03:36.773Z,14.68
2023-03-21T18:06:04.774Z,15.45
2023-03-21T18:08:33.775Z,15.10
2023-03-21T18:11:01.464Z,15.80
2023-03-21T18:13:29.166Z,16.10
2023-03-21T18:15:56.846Z,16.02
2023-03-21T18:18:27.100Z,15.93
2023-03-21T18:20:57.683Z,15.85
2023-03-21T18:23:25.714Z,16.35
2023-03-21T18:25:54.948Z,15.20
2023-03-21T18:28:23.288Z,16.02
2023-03-21T18:33:41.283Z,17.48
2023-03-21T18:36:09.963Z,17.05
2023-03-21T18:38:38.407Z,17.77
2023-03-21T18:41:08.617Z,16.25
2023-03-21T18:44:05.284Z,19.88
2023-03-21T18:46:25.064Z,16.98
2023-03-21T18:48:52.799Z,18.52
2023-03-21T18:51:21.720Z,16.67
2023-03-21T18:53:49.424Z,16.52
2023-03-21T18:57:05.899Z,16.50
2023-03-21T18:59:07.332Z,19.55
2023-03-21T19:01:35.749Z,18.85
2023-03-21T19:04:20.860Z,18.35
2023-03-21T19:06:51.077Z,16.73
2023-03-21T19:09:18.809Z,15.82
2023-03-21T19:11:47.850Z,17.48
2023-03-21T19:14:17.282Z,17.38
2023-03-21T19:17:20.164Z,18.17
2023-03-21T19:19:33.695Z,18.20
2023-03-21T19:22:01.571Z,18.05
2023-03-21T19:24:29.391Z,18.48
2023-03-21T19:26:58.487Z,19.10
2023-03-21T19:29:26.172Z,20.08
2023-03-21T19:31:53.929Z,18.50
2023-03-21T19:34:21.734Z,18.45
2023-03-21T19:36:52.000Z,19.23
2023-03-21T19:41:50.410Z,19.77
2023-03-21T19:44:21.501Z,21.05
2023-03-21T19:46:50.923Z,19.73
2023-03-21T19:49:23.632Z,20.23
2023-03-21T19:51:53.855Z,18.48
2023-03-21T19:54:23.394Z,20.30
2023-03-21T19:56:52.239Z,20.35
2023-03-21T19:59:21.268Z,19.63
2023-03-21T20:01:49.238Z,21.38
2023-03-21T20:04:17.871Z,20.02
2023-03-21T20:06:46.138Z,20.00
2023-03-21T20:09:49.816Z,19.35
2023-03-21T20:12:03.276Z,19.70
2023-03-21T20:14:32.571Z,22.35
2023-03-21T20:17:00.340Z,21.08
2023-03-21T20:19:28.061Z,22.33
2023-03-21T20:21:59.795Z,23.08
2023-03-21T20:24:29.960Z,19.85
2023-03-21T20:26:57.630Z,20.20
2023-03-21T20:32:14.665Z,26.48
2023-03-21T20:34:44.244Z,23.23
2023-03-21T20:37:12.859Z,25.23
2023-03-21T20:39:40.607Z,23.30
2023-03-21T20:42:08.810Z,22.08
2023-03-21T20:44:56.731Z,21.90
2023-03-21T20:47:26.319Z,21.35
2023-03-21T20:49:54.373Z,21.40
2023-03-21T20:55:12.856Z,22.00
2023-03-21T20:57:41.256Z,22.17
2023-03-21T21:00:14.826Z,21.92
2023-03-21T21:02:46.045Z,20.08
2023-03-21T21:05:25.786Z,21.42
2023-03-21T21:07:56.412Z,21.60
2023-03-21T21:10:25.323Z,23.00
2023-03-21T21:12:53.771Z,22.42
2023-03-21T21:15:22.034Z,21.75
2023-03-21T21:18:05.493Z,22.60
2023-03-21T21:20:34.141Z,21.42
2023-03-21T21:23:01.787Z,22.77
2023-03-21T21:25:30.464Z,19.83
2023-03-21T21:27:58.236Z,22.33
2023-03-21T21:30:26.043Z,21.92
2023-03-21T21:32:55.063Z,21.20
2023-03-21T21:35:22.927Z,21.00
2023-03-21T21:37:51.106Z,23.35
2023-03-21T21:40:22.859Z,23.60
2023-03-21T21:42:50.787Z,22.58
2023-03-21T21:45:19.250Z,22.27
2023-03-21T21:47:47.323Z,24.70
2023-03-21T21:50:16.365Z,25.38
2023-03-21T21:52:52.400Z,22.40
2023-03-21T21:55:20.271Z,22.90
2023-03-21T21:57:50.260Z,24.88
2023-03-21T22:00:20.006Z,23.38
2023-03-21T22:02:48.049Z,26.20
2023-03-21T22:05:18.845Z,25.35
2023-03-21T22:07:46.908Z,26.65
2023-03-21T22:10:15.799Z,25.75
2023-03-21T22:12:43.452Z,29.98
2023-03-21T22:15:12.999Z,28.50
2023-03-21T22:17:41.592Z,27.67
2023-03-21T22:20:12.545Z,24.75
2023-03-21T22:22:42.527Z,24.77
2023-03-21T22:25:12.933Z,23.20
2023-03-21T22:27:41.003Z,22.73
2023-03-21T22:30:13.749Z,22.30
2023-03-21T22:32:42.151Z,23.00
2023-03-21T22:35:10.905Z,20.92
2023-03-21T22:37:41.893Z,23.50
2023-03-21T22:40:11.938Z,23.50
2023-03-21T22:42:40.691Z,22.17
2023-03-21T22:45:10.404Z,22.65
2023-03-21T22:47:38.584Z,23.00
2023-03-21T22:50:07.564Z,23.30
2023-03-21T22:52:35.229Z,22.20
2023-03-21T22:55:04.475Z,23.58
2023-03-21T22:57:32.121Z,23.88
2023-03-21T22:59:59.748Z,24.17
2023-03-21T23:02:27.837Z,21.77
2023-03-21T23:04:55.794Z,23.80
2023-03-21T23:07:23.511Z,23.20
2023-03-21T23:09:51.434Z,23.38
2023-03-21T23:12:20.641Z,23.35
2023-03-21T23:14:48.352Z,21.20
2023-03-21T23:17:16.361Z,22.83
2023-03-21T23:19:44.130Z,24.30
2023-03-21T23:22:11.848Z,23.85
2023-03-21T23:24:39.475Z,23.60
2023-03-21T23:27:07.126Z,25.02
2023-03-21T23:29:36.134Z,24.20
2023-03-21T23:32:03.736Z,21.70
2023-03-21T23:34:31.562Z,23.70
2023-03-21T23:36:59.363Z,24.13
2023-03-21T23:39:28.253Z,24.27
2023-03-21T23:41:57.974Z,22.40
2023-03-21T23:44:26.358Z,24.67
2023-03-21T23:46:55.470Z,23.85
2023-03-21T23:49:23.176Z,23.15
2023-03-21T23:51:51.080Z,24.42
2023-03-21T23:54:18.784Z,22.77
2023-03-21T23:56:46.555Z,21.60
2023-03-21T23:59:14.214Z,28.05
